sensor_id;sensor_type;location;lat;lon;timestamp;pressure;altitude;pressure_sealevel;temperature;humidity
60240;BME280;46102;39.012;-7.064;2023-05-28T00:00:15;98449.44;;;16.66;91.19
60240;BME280;46102;39.012;-7.064;2023-05-28T00:02:18;98443.97;;;16.70;91.52
60240;BME280;46102;39.012;-7.064;2023-05-28T00:04:19;98439.69;;;16.72;91.67
60240;BME280;46102;39.012;-7.064;2023-05-28T00:06:21;98437.00;;;16.76;92.19
60240;BME280;46102;39.012;-7.064;2023-05-28T00:08:22;98428.78;;;16.79;92.50
60240;BME280;46102;39.012;-7.064;2023-05-28T00:10:23;98436.75;;;16.81;93.03
60240;BME280;46102;39.012;-7.064;2023-05-28T00:12:25;98430.06;;;16.82;93.51
60240;BME280;46102;39.012;-7.064;2023-05-28T00:14:26;98424.94;;;16.84;93.91
60240;BME280;46102;39.012;-7.064;2023-05-28T00:16:27;98424.94;;;16.84;94.71
60240;BME280;46102;39.012;-7.064;2023-05-28T00:18:28;98428.53;;;16.84;95.81
60240;BME280;46102;39.012;-7.064;2023-05-28T00:20:28;98425.31;;;16.82;96.44
60240;BME280;46102;39.012;-7.064;2023-05-28T00:22:29;98422.16;;;16.84;96.96
60240;BME280;46102;39.012;-7.064;2023-05-28T00:24:30;98423.34;;;16.83;97.21
60240;BME280;46102;39.012;-7.064;2023-05-28T00:26:31;98422.53;;;16.82;97.61
60240;BME280;46102;39.012;-7.064;2023-05-28T00:28:33;98423.69;;;16.81;97.92
60240;BME280;46102;39.012;-7.064;2023-05-28T00:30:33;98418.53;;;16.80;98.12
60240;BME280;46102;39.012;-7.064;2023-05-28T00:32:34;98422.53;;;16.82;98.67
60240;BME280;46102;39.012;-7.064;2023-05-28T00:34:35;98420.56;;;16.83;98.92
60240;BME280;46102;39.012;-7.064;2023-05-28T00:36:36;98413.78;;;16.80;99.04
60240;BME280;46102;39.012;-7.064;2023-05-28T00:38:37;98405.00;;;16.78;99.19
60240;BME280;46102;39.012;-7.064;2023-05-28T00:40:43;98404.22;;;16.78;99.36
60240;BME280;46102;39.012;-7.064;2023-05-28T00:42:44;98397.06;;;16.77;99.38
60240;BME280;46102;39.012;-7.064;2023-05-28T00:44:46;98406.53;;;16.76;99.59
60240;BME280;46102;39.012;-7.064;2023-05-28T00:46:47;98398.59;;;16.74;99.76
60240;BME280;46102;39.012;-7.064;2023-05-28T00:48:50;98403.31;;;16.74;99.51
60240;BME280;46102;39.012;-7.064;2023-05-28T00:50:51;98397.69;;;16.70;99.79
60240;BME280;46102;39.012;-7.064;2023-05-28T00:52:53;98393.25;;;16.65;100.00
60240;BME280;46102;39.012;-7.064;2023-05-28T00:54:55;98393.25;;;16.65;100.00
60240;BME280;46102;39.012;-7.064;2023-05-28T00:56:56;98391.91;;;16.59;99.65
60240;BME280;46102;39.012;-7.064;2023-05-28T00:59:01;98389.06;;;16.56;99.53
60240;BME280;46102;39.012;-7.064;2023-05-28T01:01:01;98387.84;;;16.53;99.20
60240;BME280;46102;39.012;-7.064;2023-05-28T01:03:04;98387.38;;;16.51;99.04
60240;BME280;46102;39.012;-7.064;2023-05-28T01:05:06;98392.47;;;16.49;98.66
60240;BME280;46102;39.012;-7.064;2023-05-28T01:07:07;98391.25;;;16.47;98.36
60240;BME280;46102;39.012;-7.064;2023-05-28T01:09:08;98382.84;;;16.43;98.64
60240;BME280;46102;39.012;-7.064;2023-05-28T01:11:15;98378.94;;;16.44;98.60
60240;BME280;46102;39.012;-7.064;2023-05-28T01:13:17;98376.16;;;16.44;98.42
60240;BME280;46102;39.012;-7.064;2023-05-28T01:15:18;98374.91;;;16.41;98.15
60240;BME280;46102;39.012;-7.064;2023-05-28T01:17:19;98373.28;;;16.40;98.14
60240;BME280;46102;39.012;-7.064;2023-05-28T01:19:23;98372.50;;;16.40;98.12
60240;BME280;46102;39.012;-7.064;2023-05-28T01:21:27;98375.97;;;16.37;97.85
60240;BME280;46102;39.012;-7.064;2023-05-28T01:23:29;98372.78;;;16.35;97.89
60240;BME280;46102;39.012;-7.064;2023-05-28T01:25:34;98371.88;;;16.31;98.02
60240;BME280;46102;39.012;-7.064;2023-05-28T01:27:42;98372.25;;;16.29;98.02
60240;BME280;46102;39.012;-7.064;2023-05-28T01:29:43;98375.34;;;16.28;97.82
60240;BME280;46102;39.012;-7.064;2023-05-28T01:31:44;98366.25;;;16.27;97.95
60240;BME280;46102;39.012;-7.064;2023-05-28T01:33:45;98366.59;;;16.26;97.84
60240;BME280;46102;39.012;-7.064;2023-05-28T01:35:46;98367.44;;;16.26;97.65
60240;BME280;46102;39.012;-7.064;2023-05-28T01:37:50;98356.81;;;16.28;97.26
60240;BME280;46102;39.012;-7.064;2023-05-28T01:39:53;98361.16;;;16.29;97.01
60240;BME280;46102;39.012;-7.064;2023-05-28T01:41:55;98366.72;;;16.29;96.88
60240;BME280;46102;39.012;-7.064;2023-05-28T01:43:59;98371.09;;;16.30;96.86
60240;BME280;46102;39.012;-7.064;2023-05-28T01:46:01;98365.97;;;16.32;96.51
60240;BME280;46102;39.012;-7.064;2023-05-28T01:48:01;98367.16;;;16.31;96.31
60240;BME280;46102;39.012;-7.064;2023-05-28T01:50:02;98364.38;;;16.31;96.12
60240;BME280;46102;39.012;-7.064;2023-05-28T01:52:04;98362.78;;;16.30;96.14
60240;BME280;46102;39.012;-7.064;2023-05-28T01:54:06;98358.84;;;16.31;96.02
60240;BME280;46102;39.012;-7.064;2023-05-28T01:56:07;98362.41;;;16.32;95.80
60240;BME280;46102;39.012;-7.064;2023-05-28T01:58:08;98365.97;;;16.32;95.63
60240;BME280;46102;39.012;-7.064;2023-05-28T02:00:09;98359.19;;;16.30;95.00
60240;BME280;46102;39.012;-7.064;2023-05-28T02:02:16;98353.22;;;16.28;95.02
60240;BME280;46102;39.012;-7.064;2023-05-28T02:04:17;98349.22;;;16.25;94.67
60240;BME280;46102;39.012;-7.064;2023-05-28T02:06:18;98345.19;;;16.22;94.95
60240;BME280;46102;39.012;-7.064;2023-05-28T02:08:20;98350.66;;;16.19;95.28
60240;BME280;46102;39.012;-7.064;2023-05-28T02:10:20;98351.03;;;16.17;95.33
60240;BME280;46102;39.012;-7.064;2023-05-28T02:12:21;98348.69;;;16.19;95.31
60240;BME280;46102;39.012;-7.064;2023-05-28T02:14:22;98340.84;;;16.21;95.03
60240;BME280;46102;39.012;-7.064;2023-05-28T02:16:23;98339.22;;;16.20;94.58
60240;BME280;46102;39.012;-7.064;2023-05-28T02:18:28;98333.34;;;16.22;94.02
60240;BME280;46102;39.012;-7.064;2023-05-28T02:20:29;98340.00;;;16.21;93.02
60240;BME280;46102;39.012;-7.064;2023-05-28T02:22:30;98340.75;;;16.18;92.97
60240;BME280;46102;39.012;-7.064;2023-05-28T02:24:30;98347.00;;;16.15;93.31
60240;BME280;46102;39.012;-7.064;2023-05-28T02:26:31;98337.09;;;16.14;93.44
60240;BME280;46102;39.012;-7.064;2023-05-28T02:28:34;98336.19;;;16.10;93.86
60240;BME280;46102;39.012;-7.064;2023-05-28T02:30:34;98329.84;;;16.09;93.69
60240;BME280;46102;39.012;-7.064;2023-05-28T02:32:35;98338.53;;;16.08;93.52
60240;BME280;46102;39.012;-7.064;2023-05-28T02:34:37;98334.34;;;15.98;94.00
60240;BME280;46102;39.012;-7.064;2023-05-28T02:36:38;98336.13;;;15.90;94.48
60240;BME280;46102;39.012;-7.064;2023-05-28T02:38:40;98343.09;;;15.84;95.10
60240;BME280;46102;39.012;-7.064;2023-05-28T02:40:42;98339.44;;;15.80;95.75
60240;BME280;46102;39.012;-7.064;2023-05-28T02:42:43;98331.84;;;15.77;96.10
60240;BME280;46102;39.012;-7.064;2023-05-28T02:44:44;98337.72;;;15.75;96.35
60240;BME280;46102;39.012;-7.064;2023-05-28T02:46:45;98329.44;;;15.75;95.88
60240;BME280;46102;39.012;-7.064;2023-05-28T02:48:46;98330.16;;;15.72;95.67
60240;BME280;46102;39.012;-7.064;2023-05-28T02:50:50;98335.34;;;15.74;95.74
60240;BME280;46102;39.012;-7.064;2023-05-28T02:53:09;98327.47;;;15.76;95.40
60240;BME280;46102;39.012;-7.064;2023-05-28T02:55:11;98327.84;;;15.74;95.20
60240;BME280;46102;39.012;-7.064;2023-05-28T02:57:12;98340.16;;;15.77;95.10
60240;BME280;46102;39.012;-7.064;2023-05-28T02:59:13;98335.69;;;15.72;95.12
60240;BME280;46102;39.012;-7.064;2023-05-28T03:01:15;98341.09;;;15.69;95.25
60240;BME280;46102;39.012;-7.064;2023-05-28T03:03:16;98346.28;;;15.70;95.25
60240;BME280;46102;39.012;-7.064;2023-05-28T03:05:17;98343.19;;;15.72;95.24
60240;BME280;46102;39.012;-7.064;2023-05-28T03:07:19;98347.56;;;15.73;95.52
60240;BME280;46102;39.012;-7.064;2023-05-28T03:09:20;98349.88;;;15.71;96.01
60240;BME280;46102;39.012;-7.064;2023-05-28T03:11:22;98343.66;;;15.74;96.40
60240;BME280;46102;39.012;-7.064;2023-05-28T03:13:23;98342.47;;;15.75;96.69
60240;BME280;46102;39.012;-7.064;2023-05-28T03:15:24;98340.16;;;15.77;96.77
60240;BME280;46102;39.012;-7.064;2023-05-28T03:17:28;98347.03;;;15.83;96.92
60240;BME280;46102;39.012;-7.064;2023-05-28T03:19:30;98344.88;;;15.76;97.29
60240;BME280;46102;39.012;-7.064;2023-05-28T03:21:31;98337.03;;;15.78;97.86
60240;BME280;46102;39.012;-7.064;2023-05-28T03:23:32;98334.53;;;15.73;98.28
60240;BME280;46102;39.012;-7.064;2023-05-28T03:25:41;98337.66;;;15.72;98.44
60240;BME280;46102;39.012;-7.064;2023-05-28T03:27:42;98335.22;;;15.70;98.81
60240;BME280;46102;39.012;-7.064;2023-05-28T03:29:43;98333.28;;;15.71;98.96
60240;BME280;46102;39.012;-7.064;2023-05-28T03:31:57;98338.81;;;15.71;99.08
60240;BME280;46102;39.012;-7.064;2023-05-28T03:33:59;98333.00;;;15.76;98.97
60240;BME280;46102;39.012;-7.064;2023-05-28T03:36:01;98337.72;;;15.75;98.80
60240;BME280;46102;39.012;-7.064;2023-05-28T03:38:02;98336.13;;;15.74;98.89
60240;BME280;46102;39.012;-7.064;2023-05-28T03:40:03;98338.53;;;15.76;98.87
60240;BME280;46102;39.012;-7.064;2023-05-28T03:42:05;98335.34;;;15.74;99.01
60240;BME280;46102;39.012;-7.064;2023-05-28T03:44:09;98337.66;;;15.72;99.25
60240;BME280;46102;39.012;-7.064;2023-05-28T03:46:10;98337.66;;;15.72;99.41
60240;BME280;46102;39.012;-7.064;2023-05-28T03:48:12;98339.94;;;15.70;99.62
60240;BME280;46102;39.012;-7.064;2023-05-28T03:50:13;98342.72;;;15.70;99.70
60240;BME280;46102;39.012;-7.064;2023-05-28T03:52:14;98344.34;;;15.71;99.61
60240;BME280;46102;39.012;-7.064;2023-05-28T03:54:22;98337.19;;;15.70;99.76
60240;BME280;46102;39.012;-7.064;2023-05-28T03:56:23;98338.81;;;15.71;99.48
60240;BME280;46102;39.012;-7.064;2023-05-28T03:58:26;98337.97;;;15.70;99.36
60240;BME280;46102;39.012;-7.064;2023-05-28T04:00:27;98345.47;;;15.70;98.86
60240;BME280;46102;39.012;-7.064;2023-05-28T04:02:28;98347.78;;;15.68;98.50
60240;BME280;46102;39.012;-7.064;2023-05-28T04:04:29;98350.19;;;15.69;98.32
60240;BME280;46102;39.012;-7.064;2023-05-28T04:06:29;98341.47;;;15.67;98.37
60240;BME280;46102;39.012;-7.064;2023-05-28T04:08:32;98340.63;;;15.67;98.33
60240;BME280;46102;39.012;-7.064;2023-05-28T04:10:32;98343.41;;;15.67;98.05
60240;BME280;46102;39.012;-7.064;2023-05-28T04:12:33;98339.50;;;15.68;97.47
60240;BME280;46102;39.012;-7.064;2023-05-28T04:14:34;98344.59;;;15.66;97.84
60240;BME280;46102;39.012;-7.064;2023-05-28T04:16:35;98341.81;;;15.66;97.98
60240;BME280;46102;39.012;-7.064;2023-05-28T04:18:36;98343.78;;;15.65;97.62
60240;BME280;46102;39.012;-7.064;2023-05-28T04:20:37;98340.19;;;15.65;97.52
60240;BME280;46102;39.012;-7.064;2023-05-28T04:22:38;98344.59;;;15.66;97.48
60240;BME280;46102;39.012;-7.064;2023-05-28T04:24:39;98342.59;;;15.66;97.23
60240;BME280;46102;39.012;-7.064;2023-05-28T04:26:40;98339.84;;;15.66;97.25
60240;BME280;46102;39.012;-7.064;2023-05-28T04:28:41;98343.84;;;15.69;97.34
60240;BME280;46102;39.012;-7.064;2023-05-28T04:30:42;98340.28;;;15.68;97.05
60240;BME280;46102;39.012;-7.064;2023-05-28T04:32:43;98343.06;;;15.68;96.70
60240;BME280;46102;39.012;-7.064;2023-05-28T04:34:44;98347.78;;;15.68;96.46
60240;BME280;46102;39.012;-7.064;2023-05-28T04:36:45;98344.59;;;15.66;96.63
60240;BME280;46102;39.012;-7.064;2023-05-28T04:38:46;98346.53;;;15.65;96.44
60240;BME280;46102;39.012;-7.064;2023-05-28T04:40:48;98344.13;;;15.64;96.37
60240;BME280;46102;39.012;-7.064;2023-05-28T04:42:50;98347.25;;;15.62;96.67
60240;BME280;46102;39.012;-7.064;2023-05-28T04:44:55;98342.09;;;15.60;96.77
60240;BME280;46102;39.012;-7.064;2023-05-28T04:46:59;98350.38;;;15.60;96.68
60240;BME280;46102;39.012;-7.064;2023-05-28T04:49:00;98353.16;;;15.60;96.63
60240;BME280;46102;39.012;-7.064;2023-05-28T04:51:01;98354.75;;;15.61;96.59
60240;BME280;46102;39.012;-7.064;2023-05-28T04:53:04;98355.53;;;15.62;96.30
60240;BME280;46102;39.012;-7.064;2023-05-28T04:55:05;98354.41;;;15.63;96.28
60240;BME280;46102;39.012;-7.064;2023-05-28T04:57:07;98355.19;;;15.64;96.11
60240;BME280;46102;39.012;-7.064;2023-05-28T04:59:09;98359.53;;;15.65;96.08
60240;BME280;46102;39.012;-7.064;2023-05-28T05:01:10;98362.31;;;15.65;96.15
60240;BME280;46102;39.012;-7.064;2023-05-28T05:03:11;98357.59;;;15.65;96.06
60240;BME280;46102;39.012;-7.064;2023-05-28T05:05:12;98355.19;;;15.64;96.32
60240;BME280;46102;39.012;-7.064;2023-05-28T05:07:14;98357.94;;;15.64;96.34
60240;BME280;46102;39.012;-7.064;2023-05-28T05:09:15;98353.22;;;15.64;96.50
60240;BME280;46102;39.012;-7.064;2023-05-28T05:11:16;98361.50;;;15.64;96.75
60240;BME280;46102;39.012;-7.064;2023-05-28T05:13:16;98353.66;;;15.66;96.83
60240;BME280;46102;39.012;-7.064;2023-05-28T05:15:19;98354.47;;;15.67;96.78
60240;BME280;46102;39.012;-7.064;2023-05-28T05:17:20;98354.13;;;15.68;96.86
60240;BME280;46102;39.012;-7.064;2023-05-28T05:19:21;98351.50;;;15.72;96.96
60240;BME280;46102;39.012;-7.064;2023-05-28T05:21:22;98358.63;;;15.73;96.61
60240;BME280;46102;39.012;-7.064;2023-05-28T05:23:23;98364.13;;;15.73;96.56
60240;BME280;46102;39.012;-7.064;2023-05-28T05:25:24;98361.38;;;15.73;96.48
60240;BME280;46102;39.012;-7.064;2023-05-28T05:27:27;98357.03;;;15.72;96.59
60240;BME280;46102;39.012;-7.064;2023-05-28T05:29:29;98359.41;;;15.73;96.42
60240;BME280;46102;39.012;-7.064;2023-05-28T05:31:30;98358.97;;;15.71;96.56
60240;BME280;46102;39.012;-7.064;2023-05-28T05:33:31;98366.91;;;15.73;96.42
60240;BME280;46102;39.012;-7.064;2023-05-28T05:36:01;98363.00;;;15.74;96.30
60240;BME280;46102;39.012;-7.064;2023-05-28T05:38:14;98365.84;;;15.77;96.13
60240;BME280;46102;39.012;-7.064;2023-05-28T05:40:33;98362.72;;;15.79;95.73
60240;BME280;46102;39.012;-7.064;2023-05-28T05:42:39;98360.03;;;15.82;95.48
60240;BME280;46102;39.012;-7.064;2023-05-28T05:44:40;98361.66;;;15.84;95.43
60240;BME280;46102;39.012;-7.064;2023-05-28T05:46:42;98362.56;;;15.88;95.29
60240;BME280;46102;39.012;-7.064;2023-05-28T05:48:43;98356.19;;;15.87;95.31
60240;BME280;46102;39.012;-7.064;2023-05-28T05:50:50;98362.19;;;15.89;95.09
60240;BME280;46102;39.012;-7.064;2023-05-28T05:52:51;98367.09;;;15.96;95.12
60240;BME280;46102;39.012;-7.064;2023-05-28T05:54:52;98371.47;;;15.97;94.89
60240;BME280;46102;39.012;-7.064;2023-05-28T05:56:53;98373.50;;;16.00;94.76
60240;BME280;46102;39.012;-7.064;2023-05-28T05:58:57;98368.44;;;16.02;94.71
60240;BME280;46102;39.012;-7.064;2023-05-28T06:00:58;98364.94;;;16.05;94.37
60240;BME280;46102;39.012;-7.064;2023-05-28T06:02:59;98374.50;;;16.08;94.39
60240;BME280;46102;39.012;-7.064;2023-05-28T06:05:19;98366.72;;;16.13;94.00
60240;BME280;46102;39.012;-7.064;2023-05-28T06:07:38;98365.31;;;16.19;93.58
60240;BME280;46102;39.012;-7.064;2023-05-28T06:09:47;98361.00;;;16.22;93.31
60240;BME280;46102;39.012;-7.064;2023-05-28T06:11:55;98362.97;;;16.21;93.28
60240;BME280;46102;39.012;-7.064;2023-05-28T06:13:57;98361.44;;;16.24;93.26
60240;BME280;46102;39.012;-7.064;2023-05-28T06:15:59;98362.69;;;16.27;93.46
60240;BME280;46102;39.012;-7.064;2023-05-28T06:18:02;98367.25;;;16.35;93.17
60240;BME280;46102;39.012;-7.064;2023-05-28T06:20:04;98370.97;;;16.42;93.04
60240;BME280;46102;39.012;-7.064;2023-05-28T06:22:07;98379.78;;;16.48;92.61
60240;BME280;46102;39.012;-7.064;2023-05-28T06:24:10;98374.78;;;16.54;92.32
60240;BME280;46102;39.012;-7.064;2023-05-28T06:26:12;98374.34;;;16.52;92.01
60240;BME280;46102;39.012;-7.064;2023-05-28T06:28:13;98378.28;;;16.51;91.86
60240;BME280;46102;39.012;-7.064;2023-05-28T06:30:14;98376.16;;;16.44;92.34
60240;BME280;46102;39.012;-7.064;2023-05-28T06:32:16;98382.13;;;16.46;92.13
60240;BME280;46102;39.012;-7.064;2023-05-28T06:34:18;98382.03;;;16.42;92.43
60240;BME280;46102;39.012;-7.064;2023-05-28T06:36:19;98389.19;;;16.43;92.67
60240;BME280;46102;39.012;-7.064;2023-05-28T06:38:20;98387.28;;;16.48;92.34
60240;BME280;46102;39.012;-7.064;2023-05-28T06:40:21;98377.84;;;16.49;92.09
60240;BME280;46102;39.012;-7.064;2023-05-28T06:42:23;98386.84;;;16.45;92.36
60240;BME280;46102;39.012;-7.064;2023-05-28T06:44:43;98382.50;;;16.44;92.53
60240;BME280;46102;39.012;-7.064;2023-05-28T06:46:49;98399.72;;;16.54;91.81
60240;BME280;46102;39.012;-7.064;2023-05-28T06:48:51;98393.19;;;16.62;90.76
60240;BME280;46102;39.012;-7.064;2023-05-28T06:50:53;98394.63;;;16.56;90.63
60240;BME280;46102;39.012;-7.064;2023-05-28T06:52:54;98388.00;;;16.60;90.95
60240;BME280;46102;39.012;-7.064;2023-05-28T06:54:55;98394.25;;;16.57;91.17
60240;BME280;46102;39.012;-7.064;2023-05-28T06:56:58;98391.06;;;16.55;91.27
60240;BME280;46102;39.012;-7.064;2023-05-28T06:59:17;98397.03;;;16.57;91.07
60240;BME280;46102;39.012;-7.064;2023-05-28T07:01:28;98395.13;;;16.61;91.20
60240;BME280;46102;39.012;-7.064;2023-05-28T07:03:42;98396.38;;;16.64;90.37
60240;BME280;46102;39.012;-7.064;2023-05-28T07:06:05;98395.94;;;16.62;90.94
60240;BME280;46102;39.012;-7.064;2023-05-28T07:08:06;98394.88;;;16.67;90.27
60240;BME280;46102;39.012;-7.064;2023-05-28T07:10:07;98390.28;;;16.74;89.60
60240;BME280;46102;39.012;-7.064;2023-05-28T07:12:09;98392.53;;;16.69;89.84
60240;BME280;46102;39.012;-7.064;2023-05-28T07:14:14;98395.47;;;16.76;89.80
60240;BME280;46102;39.012;-7.064;2023-05-28T07:16:15;98389.91;;;16.76;90.16
60240;BME280;46102;39.012;-7.064;2023-05-28T07:18:16;98396.38;;;16.80;89.97
60240;BME280;46102;39.012;-7.064;2023-05-28T07:20:17;98394.09;;;16.85;90.14
60240;BME280;46102;39.012;-7.064;2023-05-28T07:22:32;98388.28;;;16.91;89.68
60240;BME280;46102;39.012;-7.064;2023-05-28T07:24:33;98399.88;;;16.96;89.36
60240;BME280;46102;39.012;-7.064;2023-05-28T07:26:34;98390.94;;;17.03;89.36
60240;BME280;46102;39.012;-7.064;2023-05-28T07:28:36;98399.38;;;17.10;89.09
60240;BME280;46102;39.012;-7.064;2023-05-28T07:30:37;98405.16;;;17.21;87.73
60240;BME280;46102;39.012;-7.064;2023-05-28T07:32:40;98398.44;;;17.22;87.52
60240;BME280;46102;39.012;-7.064;2023-05-28T07:34:41;98404.94;;;17.30;86.59
60240;BME280;46102;39.012;-7.064;2023-05-28T07:36:42;98409.06;;;17.20;87.09
60240;BME280;46102;39.012;-7.064;2023-05-28T07:38:43;98412.66;;;17.20;87.49
60240;BME280;46102;39.012;-7.064;2023-05-28T07:40:44;98399.59;;;17.21;87.77
60240;BME280;46102;39.012;-7.064;2023-05-28T07:42:53;98407.53;;;17.22;87.53
60240;BME280;46102;39.012;-7.064;2023-05-28T07:44:54;98412.44;;;17.29;87.51
60240;BME280;46102;39.012;-7.064;2023-05-28T07:46:55;98412.34;;;17.45;85.72
60240;BME280;46102;39.012;-7.064;2023-05-28T07:49:15;98410.25;;;17.38;85.66
60240;BME280;46102;39.012;-7.064;2023-05-28T07:51:20;98418.34;;;17.27;86.27
60240;BME280;46102;39.012;-7.064;2023-05-28T07:53:32;98410.75;;;17.24;86.77
60240;BME280;46102;39.012;-7.064;2023-05-28T07:55:33;98416.38;;;17.28;87.13
60240;BME280;46102;39.012;-7.064;2023-05-28T07:57:34;98415.63;;;17.31;87.41
60240;BME280;46102;39.012;-7.064;2023-05-28T07:59:35;98408.63;;;17.37;86.47
60240;BME280;46102;39.012;-7.064;2023-05-28T08:01:38;98409.97;;;17.43;86.55
60240;BME280;46102;39.012;-7.064;2023-05-28T08:03:40;98415.13;;;17.45;86.01
60240;BME280;46102;39.012;-7.064;2023-05-28T08:05:41;98419.63;;;17.53;86.20
60240;BME280;46102;39.012;-7.064;2023-05-28T08:07:42;98417.75;;;17.57;86.02
60240;BME280;46102;39.012;-7.064;2023-05-28T08:09:43;98416.63;;;17.62;85.52
60240;BME280;46102;39.012;-7.064;2023-05-28T08:11:46;98426.31;;;17.72;84.98
60240;BME280;46102;39.012;-7.064;2023-05-28T08:13:48;98419.03;;;17.83;83.87
60240;BME280;46102;39.012;-7.064;2023-05-28T08:15:49;98423.44;;;17.84;83.71
60240;BME280;46102;39.012;-7.064;2023-05-28T08:17:52;98427.13;;;17.92;83.62
60240;BME280;46102;39.012;-7.064;2023-05-28T08:19:55;98424.41;;;17.95;83.11
60240;BME280;46102;39.012;-7.064;2023-05-28T08:22:08;98422.13;;;18.01;83.09
60240;BME280;46102;39.012;-7.064;2023-05-28T08:24:09;98411.13;;;18.08;82.96
60240;BME280;46102;39.012;-7.064;2023-05-28T08:26:11;98424.78;;;18.17;82.16
60240;BME280;46102;39.012;-7.064;2023-05-28T08:28:12;98422.88;;;18.21;81.50
60240;BME280;46102;39.012;-7.064;2023-05-28T08:30:14;98414.53;;;18.21;81.63
60240;BME280;46102;39.012;-7.064;2023-05-28T08:32:28;98426.72;;;18.13;81.50
60240;BME280;46102;39.012;-7.064;2023-05-28T08:34:29;98417.94;;;18.10;81.50
60240;BME280;46102;39.012;-7.064;2023-05-28T08:36:30;98419.19;;;18.13;81.53
60240;BME280;46102;39.012;-7.064;2023-05-28T08:38:32;98426.97;;;18.04;81.76
60240;BME280;46102;39.012;-7.064;2023-05-28T08:40:39;98427.75;;;18.04;82.24
60240;BME280;46102;39.012;-7.064;2023-05-28T08:42:42;98427.94;;;18.15;82.39
60240;BME280;46102;39.012;-7.064;2023-05-28T08:44:44;98426.59;;;18.28;81.62
60240;BME280;46102;39.012;-7.064;2023-05-28T08:46:45;98431.50;;;18.39;81.13
60240;BME280;46102;39.012;-7.064;2023-05-28T08:48:55;98425.56;;;18.40;80.98
60240;BME280;46102;39.012;-7.064;2023-05-28T08:50:56;98430.88;;;18.49;80.51
60240;BME280;46102;39.012;-7.064;2023-05-28T08:53:04;98430.53;;;18.54;80.47
60240;BME280;46102;39.012;-7.064;2023-05-28T08:55:08;98430.53;;;18.54;80.76
60240;BME280;46102;39.012;-7.064;2023-05-28T08:57:17;98424.72;;;18.63;80.52
60240;BME280;46102;39.012;-7.064;2023-05-28T08:59:25;98416.69;;;18.81;78.23
60240;BME280;46102;39.012;-7.064;2023-05-28T09:01:28;98415.19;;;19.17;77.11
60240;BME280;46102;39.012;-7.064;2023-05-28T09:03:39;98415.25;;;19.58;73.94
60240;BME280;46102;39.012;-7.064;2023-05-28T09:05:54;98407.13;;;19.76;73.27
60240;BME280;46102;39.012;-7.064;2023-05-28T09:07:57;98412.41;;;19.85;72.94
60240;BME280;46102;39.012;-7.064;2023-05-28T09:09:58;98407.28;;;19.90;71.87
60240;BME280;46102;39.012;-7.064;2023-05-28T09:12:04;98407.22;;;19.83;72.48
60240;BME280;46102;39.012;-7.064;2023-05-28T09:14:13;98418.69;;;19.78;71.97
60240;BME280;46102;39.012;-7.064;2023-05-28T09:16:23;98404.78;;;19.78;71.65
60240;BME280;46102;39.012;-7.064;2023-05-28T09:18:28;98405.88;;;19.70;72.36
60240;BME280;46102;39.012;-7.064;2023-05-28T09:20:29;98410.28;;;19.74;72.28
60240;BME280;46102;39.012;-7.064;2023-05-28T09:22:30;98405.88;;;19.70;72.24
60240;BME280;46102;39.012;-7.064;2023-05-28T09:24:53;98406.38;;;19.79;71.79
60240;BME280;46102;39.012;-7.064;2023-05-28T09:27:09;98404.34;;;19.72;71.29
60240;BME280;46102;39.012;-7.064;2023-05-28T09:29:12;98410.28;;;19.74;71.20
60240;BME280;46102;39.012;-7.064;2023-05-28T09:31:16;98405.09;;;19.69;71.86
60240;BME280;46102;39.012;-7.064;2023-05-28T09:33:17;98406.19;;;19.61;71.15
60240;BME280;46102;39.012;-7.064;2023-05-28T09:35:18;98413.19;;;19.51;71.84
60240;BME280;46102;39.012;-7.064;2023-05-28T09:37:20;98415.63;;;19.53;72.23
60240;BME280;46102;39.012;-7.064;2023-05-28T09:39:24;98412.84;;;19.56;72.48
60240;BME280;46102;39.012;-7.064;2023-05-28T09:41:27;98409.34;;;19.63;72.61
60240;BME280;46102;39.012;-7.064;2023-05-28T09:43:37;98413.38;;;19.66;73.05
60240;BME280;46102;39.012;-7.064;2023-05-28T09:45:37;98408.19;;;19.64;72.93
60240;BME280;46102;39.012;-7.064;2023-05-28T09:47:45;98403.09;;;19.70;72.97
60240;BME280;46102;39.012;-7.064;2023-05-28T09:49:46;98408.28;;;19.71;72.84
60240;BME280;46102;39.012;-7.064;2023-05-28T09:51:51;98412.41;;;19.85;71.82
60240;BME280;46102;39.012;-7.064;2023-05-28T09:53:59;98412.03;;;19.86;71.43
60240;BME280;46102;39.012;-7.064;2023-05-28T09:56:02;98414.47;;;19.91;71.82
60240;BME280;46102;39.012;-7.064;2023-05-28T09:58:05;98411.41;;;20.07;70.75
60240;BME280;46102;39.012;-7.064;2023-05-28T10:00:07;98418.66;;;20.15;69.24
60240;BME280;46102;39.012;-7.064;2023-05-28T10:02:39;98416.03;;;20.33;69.73
60240;BME280;46102;39.012;-7.064;2023-05-28T10:04:44;98417.88;;;20.63;68.98
60240;BME280;46102;39.012;-7.064;2023-05-28T10:06:48;98412.81;;;20.83;68.56
60240;BME280;46102;39.012;-7.064;2023-05-28T10:08:53;98415.25;;;20.92;67.57
60240;BME280;46102;39.012;-7.064;2023-05-28T10:10:55;98409.78;;;21.13;66.23
60240;BME280;46102;39.012;-7.064;2023-05-28T10:12:56;98411.94;;;21.41;65.21
60240;BME280;46102;39.012;-7.064;2023-05-28T10:14:58;98402.44;;;21.68;63.89
60240;BME280;46102;39.012;-7.064;2023-05-28T10:17:00;98405.69;;;21.91;62.87
60240;BME280;46102;39.012;-7.064;2023-05-28T10:19:02;98404.09;;;22.19;62.39
60240;BME280;46102;39.012;-7.064;2023-05-28T10:21:03;98401.75;;;22.28;62.25
60240;BME280;46102;39.012;-7.064;2023-05-28T10:23:07;98401.75;;;22.32;60.33
60240;BME280;46102;39.012;-7.064;2023-05-28T10:25:08;98400.50;;;22.00;61.37
60240;BME280;46102;39.012;-7.064;2023-05-28T10:27:13;98396.91;;;22.00;61.76
60240;BME280;46102;39.012;-7.064;2023-05-28T10:29:15;98400.13;;;22.09;61.47
60240;BME280;46102;39.012;-7.064;2023-05-28T10:31:21;98399.72;;;22.07;61.43
60240;BME280;46102;39.012;-7.064;2023-05-28T10:33:22;98396.91;;;22.11;60.43
60240;BME280;46102;39.012;-7.064;2023-05-28T10:35:23;98403.28;;;22.04;59.98
60240;BME280;46102;39.012;-7.064;2023-05-28T10:37:24;98394.09;;;21.89;60.12
60240;BME280;46102;39.012;-7.064;2023-05-28T10:39:25;98398.91;;;21.99;59.82
60240;BME280;46102;39.012;-7.064;2023-05-28T10:41:30;98392.91;;;21.97;59.85
60240;BME280;46102;39.012;-7.064;2023-05-28T10:45:38;98386.94;;;22.13;60.24